Time,TemperatureF,DewpointF,PressureIn,WindDirection,WindDirectionDegrees,WindSpeedMPH,WindSpeedGustMPH,Humidity,HourlyPrecipIn,Conditions,Clouds,dailyrainin,SoftwareType,DateUTC
2013-02-07 00:05:00,14.9,12.8,30.26,WNW,292,0.0,-999.0,91,-99.99,,,0.00,Acu-Link.com,2013-02-07 05:05:00,
2013-02-07 00:20:00,14.2,12.3,30.27,WNW,292,0.0,-999.0,92,-99.99,,,0.00,Acu-Link.com,2013-02-07 05:20:00,
2013-02-07 00:35:00,13.8,12.4,30.27,WNW,292,0.0,-999.0,94,-99.99,,,0.00,Acu-Link.com,2013-02-07 05:35:00,
2013-02-07 00:51:00,13.3,12.1,30.28,WNW,292,0.0,-999.0,95,-99.99,,,0.00,Acu-Link.com,2013-02-07 05:51:00,
2013-02-07 01:06:00,13.1,11.9,30.29,WNW,292,0.0,-999.0,95,-99.99,,,0.00,Acu-Link.com,2013-02-07 06:06:00,
2013-02-07 01:21:00,14.0,13.3,30.30,WNW,292,0.0,-999.0,97,-99.99,,,0.00,Acu-Link.com,2013-02-07 06:21:00,
2013-02-07 01:36:00,16.7,14.8,30.29,NE,45,2.2,-999.0,92,-99.99,,,0.00,Acu-Link.com,2013-02-07 06:36:00,
2013-02-07 01:52:00,17.2,14.3,30.30,NE,45,2.7,-999.0,88,-99.99,,,0.00,Acu-Link.com,2013-02-07 06:52:00,
2013-02-07 02:07:00,16.7,13.8,30.29,NE,45,1.7,-999.0,88,-99.99,,,0.00,Acu-Link.com,2013-02-07 07:07:00,
2013-02-07 02:22:00,16.7,14.0,30.29,NE,45,2.2,-999.0,89,-99.99,,,0.00,Acu-Link.com,2013-02-07 07:22:00,
2013-02-07 02:37:00,16.9,14.2,30.29,NE,45,3.2,-999.0,89,-99.99,,,0.00,Acu-Link.com,2013-02-07 07:37:00,
2013-02-07 02:53:00,17.1,14.2,30.30,ENE,67,3.2,-999.0,88,-99.99,,,0.00,Acu-Link.com,2013-02-07 07:53:00,
2013-02-07 03:08:00,17.2,14.3,30.30,ENE,67,1.7,-999.0,88,-99.99,,,0.00,Acu-Link.com,2013-02-07 08:08:00,
2013-02-07 03:23:00,17.2,14.0,30.30,ENE,67,1.7,-999.0,87,-99.99,,,0.00,Acu-Link.com,2013-02-07 08:23:00,
2013-02-07 03:39:00,17.4,14.2,30.30,ENE,67,3.7,-999.0,87,-99.99,,,0.00,Acu-Link.com,2013-02-07 08:39:00,
2013-02-07 03:54:00,17.4,13.9,30.30,ENE,67,2.7,-999.0,86,-99.99,,,0.00,Acu-Link.com,2013-02-07 08:54:00,
2013-02-07 04:09:00,17.4,13.9,30.30,East,90,2.7,-999.0,86,-99.99,,,0.00,Acu-Link.com,2013-02-07 09:09:00,
2013-02-07 04:24:00,17.4,14.2,30.30,East,90,2.2,-999.0,87,-99.99,,,0.00,Acu-Link.com,2013-02-07 09:24:00,
2013-02-07 04:40:00,17.4,14.2,30.30,East,90,3.2,-999.0,87,-99.99,,,0.00,Acu-Link.com,2013-02-07 09:40:00,
2013-02-07 04:55:00,17.6,14.4,30.31,East,90,2.7,-999.0,87,-99.99,,,0.00,Acu-Link.com,2013-02-07 09:55:00,
2013-02-07 05:10:00,17.8,14.6,30.30,East,90,2.7,-999.0,87,-99.99,,,0.00,Acu-Link.com,2013-02-07 10:10:00,
2013-02-07 05:26:00,17.8,14.6,30.31,East,90,1.7,-999.0,87,-99.99,,,0.00,Acu-Link.com,2013-02-07 10:26:00,
2013-02-07 05:41:00,17.4,14.2,30.31,East,90,0.0,-999.0,87,-99.99,,,0.00,Acu-Link.com,2013-02-07 10:41:00,
2013-02-07 05:56:00,17.6,14.7,30.30,East,90,1.7,-999.0,88,-99.99,,,0.00,Acu-Link.com,2013-02-07 10:56:00,
2013-02-07 06:12:00,17.4,14.5,30.30,East,90,2.7,-999.0,88,-99.99,,,0.00,Acu-Link.com,2013-02-07 11:12:00,
2013-02-07 06:27:00,17.6,14.7,30.29,East,90,2.7,-999.0,88,-99.99,,,0.00,Acu-Link.com,2013-02-07 11:27:00,
2013-02-07 06:42:00,17.8,14.9,30.29,East,90,2.7,-999.0,88,-99.99,,,0.00,Acu-Link.com,2013-02-07 11:42:00,
2013-02-07 06:57:00,18.1,14.6,30.29,East,90,3.2,-999.0,86,-99.99,,,0.00,Acu-Link.com,2013-02-07 11:57:00,
2013-02-07 07:13:00,18.7,15.0,30.29,East,90,2.2,-999.0,85,-99.99,,,0.00,Acu-Link.com,2013-02-07 12:13:00,
2013-02-07 07:28:00,19.0,14.7,30.30,ENE,67,2.7,-999.0,83,-99.99,,,0.00,Acu-Link.com,2013-02-07 12:28:00,
2013-02-07 07:43:00,19.2,14.3,30.30,ESE,112,5.3,-999.0,81,-99.99,,,0.00,Acu-Link.com,2013-02-07 12:43:00,
2013-02-07 07:58:00,19.6,14.7,30.31,East,90,3.7,-999.0,81,-99.99,,,0.00,Acu-Link.com,2013-02-07 12:58:00,
2013-02-07 08:14:00,20.1,14.9,30.31,East,90,2.7,-999.0,80,-99.99,,,0.00,Acu-Link.com,2013-02-07 13:14:00,
2013-02-07 08:29:00,20.1,14.9,30.30,East,90,4.2,-999.0,80,-99.99,,,0.00,Acu-Link.com,2013-02-07 13:29:00,
2013-02-07 08:44:00,20.8,15.3,30.30,ESE,112,2.7,-999.0,79,-99.99,,,0.00,Acu-Link.com,2013-02-07 13:44:00,
2013-02-07 09:00:00,21.7,15.6,30.31,East,90,4.2,-999.0,77,-99.99,,,0.00,Acu-Link.com,2013-02-07 14:00:00,
2013-02-07 09:15:00,22.6,16.2,30.30,East,90,5.8,-999.0,76,-99.99,,,0.00,Acu-Link.com,2013-02-07 14:15:00,
2013-02-07 09:30:00,24.3,16.9,30.30,ESE,112,6.8,-999.0,73,-99.99,,,0.00,Acu-Link.com,2013-02-07 14:30:00,
2013-02-07 09:45:00,24.8,16.8,30.29,East,90,4.2,-999.0,71,-99.99,,,0.00,Acu-Link.com,2013-02-07 14:45:00,
2013-02-07 10:01:00,25.2,16.8,30.29,ENE,67,5.3,-999.0,70,-99.99,,,0.00,Acu-Link.com,2013-02-07 15:01:00,
2013-02-07 10:16:00,25.2,16.8,30.28,SE,135,5.8,-999.0,70,-99.99,,,0.00,Acu-Link.com,2013-02-07 15:16:00,
2013-02-07 10:31:00,26.4,17.3,30.27,East,90,4.7,-999.0,68,-99.99,,,0.00,Acu-Link.com,2013-02-07 15:31:00,
2013-02-07 10:47:00,27.1,17.6,30.27,East,90,5.3,-999.0,67,-99.99,,,0.00,Acu-Link.com,2013-02-07 15:47:00,
2013-02-07 11:02:00,27.3,17.5,30.27,East,90,3.7,-999.0,66,-99.99,,,0.00,Acu-Link.com,2013-02-07 16:02:00,
2013-02-07 11:17:00,27.1,17.3,30.26,ENE,67,4.7,-999.0,66,-99.99,,,0.00,Acu-Link.com,2013-02-07 16:17:00,
2013-02-07 11:33:00,28.0,17.4,30.26,ESE,112,5.3,-999.0,64,-99.99,,,0.00,Acu-Link.com,2013-02-07 16:33:00,
2013-02-07 11:48:00,27.7,17.5,30.25,NE,45,6.3,-999.0,65,-99.99,,,0.00,Acu-Link.com,2013-02-07 16:48:00,
2013-02-07 12:03:00,28.0,17.4,30.23,East,90,5.3,-999.0,64,-99.99,,,0.00,Acu-Link.com,2013-02-07 17:03:00,
2013-02-07 12:19:00,28.6,18.0,30.22,ENE,67,8.3,-999.0,64,-99.99,,,0.00,Acu-Link.com,2013-02-07 17:19:00,
2013-02-07 12:34:00,28.6,17.6,30.21,ENE,67,4.2,-999.0,63,-99.99,,,0.00,Acu-Link.com,2013-02-07 17:34:00,
2013-02-07 12:49:00,29.3,17.9,30.21,ENE,67,5.3,-999.0,62,-99.99,,,0.00,Acu-Link.com,2013-02-07 17:49:00,
2013-02-07 13:04:00,29.8,18.0,30.19,ESE,112,10.9,-999.0,61,-99.99,,,0.00,Acu-Link.com,2013-02-07 18:04:00,
2013-02-07 13:20:00,29.8,18.4,30.19,NNE,22,5.8,-999.0,62,-99.99,,,0.00,Acu-Link.com,2013-02-07 18:20:00,
2013-02-07 13:35:00,30.4,18.6,30.18,East,90,8.3,-999.0,61,-99.99,,,0.00,Acu-Link.com,2013-02-07 18:35:00,
2013-02-07 13:50:00,31.5,19.2,30.17,East,90,5.3,-999.0,60,-99.99,,,0.00,Acu-Link.com,2013-02-07 18:50:00,
2013-02-07 14:06:00,31.5,18.8,30.16,NE,45,5.3,-999.0,59,-99.99,,,0.00,Acu-Link.com,2013-02-07 19:06:00,
2013-02-07 14:21:00,31.8,18.7,30.15,East,90,10.4,-999.0,58,-99.99,,,0.00,Acu-Link.com,2013-02-07 19:21:00,
2013-02-07 14:36:00,31.6,18.5,30.14,ESE,112,6.8,-999.0,58,-99.99,,,0.00,Acu-Link.com,2013-02-07 19:36:00,
2013-02-07 14:52:00,31.6,18.5,30.15,ESE,112,7.8,-999.0,58,-99.99,,,0.00,Acu-Link.com,2013-02-07 19:52:00,
2013-02-07 15:07:00,31.8,19.1,30.15,ESE,112,6.3,-999.0,59,-99.99,,,0.00,Acu-Link.com,2013-02-07 20:07:00,
2013-02-07 15:22:00,30.9,19.4,30.14,ESE,112,5.3,-999.0,62,-99.99,,,0.00,Acu-Link.com,2013-02-07 20:22:00,
2013-02-07 15:38:00,30.9,19.4,30.14,ENE,67,7.8,-999.0,62,-99.99,,,0.00,Acu-Link.com,2013-02-07 20:38:00,
2013-02-07 15:53:00,30.6,19.5,30.13,East,90,5.3,-999.0,63,-99.99,,,0.00,Acu-Link.com,2013-02-07 20:53:00,
2013-02-07 16:08:00,30.4,19.7,30.13,East,90,6.8,-999.0,64,-99.99,,,0.00,Acu-Link.com,2013-02-07 21:08:00,
2013-02-07 16:23:00,30.2,19.9,30.13,NE,45,4.7,-999.0,65,-99.99,,,0.00,Acu-Link.com,2013-02-07 21:23:00,
2013-02-07 16:38:00,29.8,19.5,30.13,ESE,112,7.3,-999.0,65,-99.99,,,0.00,Acu-Link.com,2013-02-07 21:38:00,
2013-02-07 16:54:00,29.8,19.9,30.12,East,90,5.8,-999.0,66,-99.99,,,0.00,Acu-Link.com,2013-02-07 21:54:00,
2013-02-07 17:09:00,29.5,19.9,30.12,East,90,5.8,-999.0,67,-99.99,,,0.00,Acu-Link.com,2013-02-07 22:09:00,
2013-02-07 17:24:00,29.3,19.7,30.12,ENE,67,5.3,-999.0,67,-99.99,,,0.00,Acu-Link.com,2013-02-07 22:24:00,
2013-02-07 17:40:00,29.1,19.9,30.12,East,90,4.2,-999.0,68,-99.99,,,0.00,Acu-Link.com,2013-02-07 22:40:00,
2013-02-07 17:55:00,28.8,19.6,30.12,ENE,67,5.3,-999.0,68,-99.99,,,0.00,Acu-Link.com,2013-02-07 22:55:00,
2013-02-07 18:11:00,28.8,19.9,30.11,East,90,5.3,-999.0,69,-99.99,,,0.00,Acu-Link.com,2013-02-07 23:11:00,
2013-02-07 18:26:00,28.8,19.6,30.11,ESE,112,7.3,-999.0,68,-99.99,,,0.00,Acu-Link.com,2013-02-07 23:26:00,
2013-02-07 18:41:00,28.8,19.6,30.11,East,90,4.7,-999.0,68,-99.99,,,0.00,Acu-Link.com,2013-02-07 23:41:00,
2013-02-07 18:56:00,28.8,19.6,30.10,East,90,4.2,-999.0,68,-99.99,,,0.00,Acu-Link.com,2013-02-07 23:56:00,
2013-02-07 19:11:00,28.8,19.6,30.10,ENE,67,6.3,-999.0,68,-99.99,,,0.00,Acu-Link.com,2013-02-08 00:11:00,
2013-02-07 19:27:00,28.8,19.6,30.09,NE,45,5.3,-999.0,68,-99.99,,,0.00,Acu-Link.com,2013-02-08 00:27:00,
2013-02-07 19:42:00,28.8,19.6,30.09,ENE,67,4.2,-999.0,68,-99.99,,,0.00,Acu-Link.com,2013-02-08 00:42:00,
2013-02-07 19:57:00,28.8,19.9,30.08,East,90,3.2,-999.0,69,-99.99,,,0.00,Acu-Link.com,2013-02-08 00:57:00,
2013-02-07 20:13:00,28.8,19.9,30.07,ENE,67,6.8,-999.0,69,-99.99,,,0.00,Acu-Link.com,2013-02-08 01:13:00,
2013-02-07 20:28:00,28.8,20.3,30.06,ENE,67,4.7,-999.0,70,-99.99,,,0.00,Acu-Link.com,2013-02-08 01:28:00,
2013-02-07 20:43:00,28.8,20.6,30.05,ENE,67,5.8,-999.0,71,-99.99,,,0.00,Acu-Link.com,2013-02-08 01:43:00,
2013-02-07 20:59:00,28.8,20.9,30.04,ENE,67,5.3,-999.0,72,-99.99,,,0.00,Acu-Link.com,2013-02-08 01:59:00,
2013-02-07 21:14:00,28.2,20.7,30.02,ENE,67,9.9,-999.0,73,-99.99,,,0.00,Acu-Link.com,2013-02-08 02:14:00,
2013-02-07 21:29:00,27.7,20.5,30.01,ESE,112,6.3,-999.0,74,-99.99,,,0.00,Acu-Link.com,2013-02-08 02:29:00,
2013-02-07 21:44:00,27.5,20.6,30.01,ESE,112,4.7,-999.0,75,-99.99,,,0.00,Acu-Link.com,2013-02-08 02:44:00,
2013-02-07 22:00:00,27.3,20.4,29.98,NE,45,4.7,-999.0,75,-99.99,,,0.00,Acu-Link.com,2013-02-08 03:00:00,
2013-02-07 22:15:00,27.1,20.6,29.99,East,90,6.3,-999.0,76,-99.99,,,0.00,Acu-Link.com,2013-02-08 03:15:00,
2013-02-07 22:30:00,27.1,20.6,30.00,ENE,67,3.7,-999.0,76,-99.99,,,0.00,Acu-Link.com,2013-02-08 03:30:00,
2013-02-07 22:46:00,27.1,20.9,30.00,East,90,6.8,-999.0,77,-99.99,,,0.00,Acu-Link.com,2013-02-08 03:46:00,
2013-02-07 23:01:00,27.1,20.9,29.99,ENE,67,4.2,-999.0,77,-99.99,,,0.00,Acu-Link.com,2013-02-08 04:01:00,
2013-02-07 23:16:00,27.1,21.2,29.98,ENE,67,3.7,-999.0,78,-99.99,,,0.00,Acu-Link.com,2013-02-08 04:16:00,
2013-02-07 23:32:00,27.1,21.5,29.98,ENE,67,4.2,-999.0,79,-99.99,,,0.00,Acu-Link.com,2013-02-08 04:32:00,
2013-02-07 23:47:00,27.1,21.5,29.98,NE,45,3.7,-999.0,79,-99.99,,,0.00,Acu-Link.com,2013-02-08 04:47:00,